WAT392 ESPA-ESSA
Flight info
| Callsign | WAT392 |
|---|---|
| Flight time | N/A |
| Altitude | 24000 |
| Route | VERAG DCT KETEL DCT BODRI DCT SIPRI N5 VACRA |
| Aircraft | DH8D/M-SDE2E3FGRY/H |
Departure
| Time | 2026-04-14 22:07 |
|---|---|
| Airport | Luleå Airport (ESPA) |
Arrival
| Time | N/A |
|---|---|
| Airport | Stockholm-Arlanda Airport (ESSA) |
| Time | Latitude | Longitude | Altitude | Speed | Heading |
|---|---|---|---|---|---|
| 2026-04-14 21:43 | 65.54864 | 22.12217 | 42 ft | 0 kts | 47° |
| 2026-04-14 21:58 | 65.54864 | 22.12218 | 42 ft | 0 kts | 47° |
| 2026-04-14 21:58 | 65.54862 | 22.12214 | 42 ft | 1 kts | 47° |
| 2026-04-14 21:59 | 65.54852 | 22.12188 | 42 ft | 2 kts | 47° |
| 2026-04-14 21:59 | 65.54843 | 22.12161 | 42 ft | 2 kts | 60° |
| 2026-04-14 21:59 | 65.54839 | 22.12127 | 42 ft | 2 kts | 86° |
| 2026-04-14 21:59 | 65.54840 | 22.12093 | 42 ft | 2 kts | 111° |
| 2026-04-14 22:00 | 65.54848 | 22.12064 | 42 ft | 1 kts | 136° |
| 2026-04-14 22:00 | 65.54850 | 22.12059 | 42 ft | 0 kts | 138° |
| 2026-04-14 22:02 | 65.54849 | 22.12060 | 42 ft | 1 kts | 138° |
| 2026-04-14 22:03 | 65.54790 | 22.12188 | 42 ft | 17 kts | 136° |
| 2026-04-14 22:03 | 65.54700 | 22.12265 | 42 ft | 12 kts | 187° |
| 2026-04-14 22:03 | 65.54643 | 22.12214 | 42 ft | 7 kts | 164° |
| 2026-04-14 22:03 | 65.54562 | 22.12403 | 42 ft | 24 kts | 135° |
| 2026-04-14 22:04 | 65.54446 | 22.12663 | 42 ft | 21 kts | 137° |
| 2026-04-14 22:04 | 65.54326 | 22.12932 | 42 ft | 25 kts | 136° |
| 2026-04-14 22:04 | 65.54209 | 22.13188 | 45 ft | 20 kts | 137° |
| 2026-04-14 22:04 | 65.54115 | 22.13396 | 45 ft | 16 kts | 137° |
| 2026-04-14 22:05 | 65.54016 | 22.13613 | 45 ft | 25 kts | 138° |
| 2026-04-14 22:05 | 65.53894 | 22.13887 | 42 ft | 22 kts | 136° |
| 2026-04-14 22:05 | 65.53796 | 22.14088 | 40 ft | 16 kts | 152° |
| 2026-04-14 22:05 | 65.53695 | 22.14150 | 39 ft | 12 kts | 184° |
| 2026-04-14 22:06 | 65.53631 | 22.14072 | 38 ft | 11 kts | 226° |
| 2026-04-14 22:06 | 65.53612 | 22.13907 | 40 ft | 9 kts | 295° |
| 2026-04-14 22:06 | 65.53761 | 22.13572 | 44 ft | 63 kts | 317° |
| 2026-04-14 22:06 | 65.54280 | 22.12415 | 48 ft | 131 kts | 317° |
| 2026-04-14 22:07 | 65.54997 | 22.10838 | 368 ft | 144 kts | 316° |
| 2026-04-14 22:07 | 65.55772 | 22.09174 | 770 ft | 167 kts | 321° |
| 2026-04-14 22:07 | 65.56753 | 22.07162 | 1033 ft | 196 kts | 321° |
| 2026-04-14 22:07 | 65.57699 | 22.04639 | 1463 ft | 213 kts | 296° |
| 2026-04-14 22:08 | 65.57812 | 22.01133 | 1923 ft | 221 kts | 250° |
| 2026-04-14 22:08 | 65.56873 | 21.98293 | 2418 ft | 220 kts | 206° |
| 2026-04-14 22:08 | 65.55383 | 21.97636 | 2928 ft | 222 kts | 174° |
| 2026-04-14 22:08 | 65.53822 | 21.97951 | 3435 ft | 231 kts | 174° |
| 2026-04-14 22:09 | 65.52203 | 21.98212 | 4127 ft | 231 kts | 175° |
| 2026-04-14 22:09 | 65.50625 | 21.98402 | 4835 ft | 231 kts | 176° |
| 2026-04-14 22:09 | 65.49025 | 21.98544 | 5525 ft | 231 kts | 176° |
| 2026-04-14 22:09 | 65.47426 | 21.98643 | 6194 ft | 233 kts | 178° |
| 2026-04-14 22:10 | 65.45815 | 21.98713 | 6852 ft | 234 kts | 178° |
| 2026-04-14 22:10 | 65.44183 | 21.98761 | 7501 ft | 237 kts | 178° |
| 2026-04-14 22:10 | 65.42519 | 21.98793 | 8121 ft | 240 kts | 178° |
| 2026-04-14 22:10 | 65.40858 | 21.98812 | 8735 ft | 242 kts | 178° |
| 2026-04-14 22:11 | 65.39154 | 21.98822 | 9123 ft | 256 kts | 178° |
| 2026-04-14 22:11 | 65.37324 | 21.98825 | 9537 ft | 263 kts | 178° |
| 2026-04-14 22:11 | 65.35490 | 21.98821 | 9955 ft | 269 kts | 179° |
| 2026-04-14 22:11 | 65.33610 | 21.98813 | 10462 ft | 272 kts | 179° |
| 2026-04-14 22:12 | 65.31739 | 21.98802 | 11004 ft | 273 kts | 178° |
| 2026-04-14 22:12 | 65.29823 | 21.98790 | 11511 ft | 276 kts | 178° |
| 2026-04-14 22:12 | 65.27907 | 21.98775 | 12044 ft | 278 kts | 178° |
| 2026-04-14 22:12 | 65.25993 | 21.98760 | 12550 ft | 279 kts | 178° |
| 2026-04-14 22:13 | 65.24038 | 21.98743 | 13015 ft | 282 kts | 178° |
| 2026-04-14 22:13 | 65.22086 | 21.98726 | 13569 ft | 284 kts | 178° |
| 2026-04-14 22:13 | 65.20097 | 21.98708 | 14056 ft | 286 kts | 178° |
| 2026-04-14 22:13 | 65.18125 | 21.98690 | 14539 ft | 288 kts | 178° |
| 2026-04-14 22:14 | 65.16122 | 21.98671 | 14976 ft | 291 kts | 178° |
| 2026-04-14 22:14 | 65.14092 | 21.98652 | 15442 ft | 294 kts | 178° |
| 2026-04-14 22:14 | 65.12027 | 21.98203 | 15878 ft | 300 kts | 191° |
| 2026-04-14 22:14 | 65.10040 | 21.96569 | 16329 ft | 304 kts | 198° |
| 2026-04-14 22:15 | 65.08075 | 21.94809 | 16785 ft | 306 kts | 198° |
| 2026-04-14 22:15 | 65.06060 | 21.93004 | 17183 ft | 310 kts | 198° |
| 2026-04-14 22:15 | 65.04057 | 21.91218 | 17628 ft | 313 kts | 198° |
| 2026-04-14 22:15 | 65.02032 | 21.89422 | 18071 ft | 315 kts | 198° |
| 2026-04-14 22:16 | 64.99970 | 21.87602 | 18482 ft | 318 kts | 197° |
| 2026-04-14 22:16 | 64.97877 | 21.85759 | 18899 ft | 321 kts | 197° |
| 2026-04-14 22:16 | 64.95781 | 21.83921 | 19352 ft | 322 kts | 197° |
| 2026-04-14 22:16 | 64.93652 | 21.82059 | 19728 ft | 326 kts | 197° |
| 2026-04-14 22:17 | 64.91540 | 21.80216 | 20150 ft | 328 kts | 197° |
| 2026-04-14 22:17 | 64.89407 | 21.78360 | 20544 ft | 330 kts | 198° |
| 2026-04-14 22:17 | 64.87254 | 21.76489 | 20959 ft | 333 kts | 198° |
| 2026-04-14 22:17 | 64.85076 | 21.74602 | 21376 ft | 335 kts | 198° |
| 2026-04-14 22:18 | 64.82897 | 21.72718 | 21790 ft | 337 kts | 198° |
| 2026-04-14 22:18 | 64.80675 | 21.70799 | 22197 ft | 340 kts | 198° |
| 2026-04-14 22:18 | 64.78486 | 21.68913 | 22531 ft | 343 kts | 198° |
| 2026-04-14 22:18 | 64.76208 | 21.66954 | 22884 ft | 345 kts | 198° |
| 2026-04-14 22:19 | 64.73960 | 21.65023 | 23251 ft | 348 kts | 198° |
| 2026-04-14 22:19 | 64.69424 | 21.61140 | 23977 ft | 352 kts | 198° |
| 2026-04-14 22:19 | 64.67108 | 21.59161 | 24294 ft | 355 kts | 198° |
| 2026-04-14 22:20 | 64.64779 | 21.57177 | 24448 ft | 363 kts | 198° |
| 2026-04-14 22:20 | 64.62414 | 21.55166 | 24490 ft | 364 kts | 198° |
| 2026-04-14 22:20 | 64.60083 | 21.53196 | 24494 ft | 361 kts | 198° |
| 2026-04-14 22:20 | 64.57670 | 21.51154 | 24483 ft | 358 kts | 198° |
| 2026-04-14 22:21 | 64.55350 | 21.49192 | 24470 ft | 356 kts | 198° |
| 2026-04-14 22:21 | 64.53037 | 21.47241 | 24479 ft | 355 kts | 198° |
| 2026-04-14 22:21 | 64.50740 | 21.45306 | 24474 ft | 354 kts | 198° |
| 2026-04-14 22:21 | 64.48445 | 21.43376 | 24466 ft | 353 kts | 198° |
| 2026-04-14 22:22 | 64.46156 | 21.41454 | 24472 ft | 352 kts | 198° |
| 2026-04-14 22:22 | 64.43838 | 21.39512 | 24474 ft | 351 kts | 198° |
| 2026-04-14 22:22 | 64.41598 | 21.37637 | 24475 ft | 351 kts | 198° |
| 2026-04-14 22:22 | 64.39266 | 21.35688 | 24451 ft | 350 kts | 198° |
| 2026-04-14 22:23 | 64.36999 | 21.33798 | 24482 ft | 349 kts | 197° |
| 2026-04-14 22:23 | 64.34724 | 21.31905 | 24444 ft | 349 kts | 197° |
| 2026-04-14 22:23 | 64.32423 | 21.29992 | 24449 ft | 349 kts | 197° |
| 2026-04-14 22:23 | 64.30136 | 21.28095 | 24463 ft | 349 kts | 197° |
| 2026-04-14 22:24 | 64.27863 | 21.26213 | 24470 ft | 349 kts | 197° |
| 2026-04-14 22:24 | 64.25598 | 21.24341 | 24448 ft | 349 kts | 197° |
| 2026-04-14 22:24 | 64.23324 | 21.22465 | 24452 ft | 349 kts | 197° |
| 2026-04-14 22:24 | 64.21041 | 21.20584 | 24458 ft | 349 kts | 197° |
| 2026-04-14 22:25 | 64.18758 | 21.18707 | 24448 ft | 349 kts | 197° |
| 2026-04-14 22:25 | 64.16456 | 21.16818 | 24460 ft | 349 kts | 197° |
| 2026-04-14 22:25 | 64.14184 | 21.14958 | 24444 ft | 350 kts | 198° |
| 2026-04-14 22:25 | 64.11894 | 21.13086 | 24438 ft | 350 kts | 198° |
| 2026-04-14 22:26 | 64.09613 | 21.11224 | 24447 ft | 350 kts | 198° |
| 2026-04-14 22:26 | 64.07333 | 21.09366 | 24456 ft | 350 kts | 197° |
| 2026-04-14 22:26 | 64.05043 | 21.07504 | 24457 ft | 351 kts | 198° |
| 2026-04-14 22:26 | 64.02751 | 21.05642 | 24464 ft | 350 kts | 197° |
| 2026-04-14 22:27 | 64.00462 | 21.03787 | 24470 ft | 350 kts | 197° |
| 2026-04-14 22:27 | 63.98160 | 21.01924 | 24465 ft | 351 kts | 197° |
| 2026-04-14 22:27 | 63.95863 | 21.00069 | 24461 ft | 350 kts | 197° |
| 2026-04-14 22:27 | 63.93578 | 20.98227 | 24474 ft | 351 kts | 197° |
| 2026-04-14 22:28 | 63.91281 | 20.96378 | 24479 ft | 351 kts | 198° |
| 2026-04-14 22:28 | 63.89002 | 20.94547 | 24469 ft | 351 kts | 197° |
| 2026-04-14 22:28 | 63.86697 | 20.92698 | 24475 ft | 351 kts | 198° |
| 2026-04-14 22:28 | 63.84386 | 20.90847 | 24475 ft | 350 kts | 198° |
| 2026-04-14 22:29 | 63.82106 | 20.89024 | 24460 ft | 350 kts | 198° |
| 2026-04-14 22:29 | 63.79821 | 20.87202 | 24477 ft | 350 kts | 198° |
| 2026-04-14 22:29 | 63.77520 | 20.85368 | 24464 ft | 350 kts | 198° |
| 2026-04-14 22:29 | 63.75245 | 20.83559 | 24473 ft | 350 kts | 198° |
| 2026-04-14 22:30 | 63.72953 | 20.81740 | 24492 ft | 351 kts | 197° |
| 2026-04-14 22:30 | 63.70664 | 20.79927 | 24480 ft | 350 kts | 198° |
| 2026-04-14 22:30 | 63.68366 | 20.78109 | 24470 ft | 350 kts | 198° |
| 2026-04-14 22:30 | 63.66055 | 20.76283 | 24473 ft | 350 kts | 198° |
| 2026-04-14 22:31 | 63.63769 | 20.74481 | 24478 ft | 350 kts | 198° |
| 2026-04-14 22:31 | 63.61470 | 20.72671 | 24474 ft | 350 kts | 198° |
| 2026-04-14 22:31 | 63.59170 | 20.70865 | 24464 ft | 350 kts | 198° |
| 2026-04-14 22:31 | 63.56878 | 20.69067 | 24451 ft | 350 kts | 198° |
| 2026-04-14 22:32 | 63.54602 | 20.67285 | 24464 ft | 350 kts | 198° |
| 2026-04-14 22:32 | 63.52311 | 20.65494 | 24459 ft | 350 kts | 198° |
| 2026-04-14 22:32 | 63.50035 | 20.63718 | 24445 ft | 350 kts | 198° |
| 2026-04-14 22:32 | 63.47715 | 20.61910 | 24454 ft | 350 kts | 198° |
| 2026-04-14 22:33 | 63.45416 | 20.60121 | 24445 ft | 350 kts | 198° |
| 2026-04-14 22:33 | 63.43115 | 20.58336 | 24450 ft | 350 kts | 198° |
| 2026-04-14 22:33 | 63.40814 | 20.56552 | 24438 ft | 351 kts | 198° |
| 2026-04-14 22:33 | 63.38522 | 20.54779 | 24438 ft | 350 kts | 198° |
| 2026-04-14 22:34 | 63.36241 | 20.53017 | 24444 ft | 350 kts | 198° |
| 2026-04-14 22:34 | 63.33944 | 20.51246 | 24442 ft | 350 kts | 198° |
| 2026-04-14 22:34 | 63.31649 | 20.49479 | 24445 ft | 350 kts | 198° |
| 2026-04-14 22:34 | 63.29346 | 20.47709 | 24446 ft | 349 kts | 198° |
| 2026-04-14 22:35 | 63.27032 | 20.45934 | 24438 ft | 350 kts | 198° |
| 2026-04-14 22:35 | 63.24739 | 20.44178 | 24440 ft | 350 kts | 198° |
| 2026-04-14 22:35 | 63.22451 | 20.42428 | 24442 ft | 350 kts | 198° |
| 2026-04-14 22:35 | 63.20164 | 20.40683 | 24444 ft | 350 kts | 198° |
| 2026-04-14 22:36 | 63.17862 | 20.38928 | 24454 ft | 350 kts | 199° |
| 2026-04-14 22:36 | 63.15573 | 20.37186 | 24440 ft | 350 kts | 199° |
| 2026-04-14 22:36 | 63.13276 | 20.35441 | 24438 ft | 350 kts | 198° |